หน้าหลัก
METAR-TAF:

METAR-TAF

ท่าอากาศยาน :

Cranfield, อังกฤษ

ละติจูด: 52-04N, ลองจิจูด: 000-37W, ความสูง: 111 ม.

การสังเกตสภาพอากาศปัจจุบัน

รายงานได้ทำขึ้นเมื่อ 12 ชั่วโมงและ 19 นาทีที่แล้ว ณ เวลา 16:50 UTC
ลม 9 นอตจากตะวันตก, แปรผันระหว่างตะวันตก/ตะวันตกเฉียงใต้ และตะวันตกเฉียงเหนือ
อุณหภูมิ 16°C
ความชื้น 42%
ความกดอากาศ 1019 hPa
ทัศนวิสัย 10 กม. หรือมากกว่า
มีเมฆน้อยที่ความสูง 4400 ฟุต

METAR: EGTC 121650Z 28009KT 240V310 9999 FEW044 16/03 Q1019

เวลา: 06:09 (05:09 UTC)

การพยากรณ์

รายงานได้ทำขึ้นเมื่อ 15 ชั่วโมงและ 12 นาทีที่แล้ว ณ เวลา 13:57 UTC
การพยากรณ์มีผลตั้งแต่วันที่ 12 ณ เวลา 15 UTC จนถึงวันที่ 12 ณ เวลา 18 UTC
ลม 6 นอตจากตะวันตก
ทัศนวิสัย 10 กม. หรือมากกว่า
มีเมฆน้อยที่ความสูง 4000 ฟุต

TAF: EGTC 121357Z 1215/1218 27006KT 9999 FEW040

สังเกตการณ์สภาพอากาศและพยากรณ์อากาศของสนามบินมากกว่า 4000 แห่ง (รายงาน METAR และ TAF).

สถานีที่ดูได้จะแสดงไว้ด้วยจุดสีเหลืองและสีแดงบนแผนที่.

เลื่อนเมาส์ไปเหนือจุดเพื่อดูชื่อสถานี.

แล้วคลิกเพื่อดูสังเกตการณ์และการพยากรณ์สภาพอากาศ.

ในการเปลี่ยนแผนที่: คลิกที่ปุ่มสีเขียวที่มีกากบาทสีดำเพื่อซูมเข้า; ที่ปุ่มสีเขียวที่มีขีดเพื่อซูมออก; หรือที่ลูกศรสีเขียวเพื่อไปยังแผนที่ที่อยู่ติดกัน.


METAR-TAF: